Time;durP1;ratioP1;P1;durP2;ratioP2;P2;SDS_P1;SDS_P2;PMS_P1;PMS_P2;Temp;Humidity;BMP_temperature;BMP_pressure;BME280_temperature;BME280_humidity;BME280_pressure;Samples;Min_cycle;Max_cycle;Signal;HPM_P1;HPM_P2
2020/12/29 00:00:32;;;;;;;25.15;14.20;;;;;;;5.37;60.41;100630.30;1815957;79;21092;-79
2020/12/29 00:03:01;;;;;;;28.60;15.85;;;;;;;5.32;60.59;100639.95;1822862;78;22523;-78
2020/12/29 00:05:29;;;;;;;26.37;13.90;;;;;;;5.30;60.74;100623.27;1816232;79;21236;-79
2020/12/29 00:07:57;;;;;;;27.45;15.88;;;;;;;5.27;60.84;100615.56;1823074;78;21655;-78
2020/12/29 00:10:24;;;;;;;24.92;13.75;;;;;;;5.29;60.83;100622.92;1816023;79;21196;-76
2020/12/29 00:12:52;;;;;;;27.40;15.00;;;;;;;5.30;60.89;100637.88;1823298;78;21675;-78
2020/12/29 00:15:20;;;;;;;42.88;18.32;;;;;;;5.31;60.92;100623.17;1816027;79;21768;-78
2020/12/29 00:17:48;;;;;;;30.25;15.80;;;;;;;5.34;60.91;100621.58;1822959;78;21241;-78
2020/12/29 00:20:15;;;;;;;30.35;14.98;;;;;;;5.36;60.79;100626.80;1815887;79;21193;-77
2020/12/29 00:22:43;;;;;;;24.20;12.88;;;;;;;5.33;60.82;100615.92;1823087;78;21157;-78
2020/12/29 00:25:11;;;;;;;37.90;16.75;;;;;;;5.38;60.83;100616.88;1816004;79;21260;-78
2020/12/29 00:27:40;;;;;;;39.20;18.67;;;;;;;5.47;60.76;100621.47;1823097;78;21378;-77
2020/12/29 00:30:08;;;;;;;34.80;16.93;;;;;;;5.53;60.59;100610.83;1815666;79;21677;-78
2020/12/29 00:32:36;;;;;;;33.00;16.97;;;;;;;5.55;60.55;100608.91;1823123;78;21244;-78
2020/12/29 00:35:04;;;;;;;36.58;18.32;;;;;;;5.62;60.43;100591.50;1816202;78;21038;-77
2020/12/29 00:37:33;;;;;;;25.25;14.35;;;;;;;5.68;60.29;100588.82;1823361;78;21083;-80
2020/12/29 00:40:01;;;;;;;27.62;15.72;;;;;;;5.71;60.14;100587.26;1816187;79;21800;-77
2020/12/29 00:42:33;;;;;;;20.12;10.95;;;;;;;5.74;60.06;100579.89;1823541;78;21177;-77
2020/12/29 00:45:01;;;;;;;29.67;13.95;;;;;;;5.78;59.92;100582.66;1823650;78;21154;-77
2020/12/29 00:47:29;;;;;;;30.95;15.98;;;;;;;5.78;59.91;100570.70;1816441;79;21165;-77
2020/12/29 00:49:57;;;;;;;25.05;14.28;;;;;;;5.81;59.85;100554.97;1823540;78;21165;-77
2020/12/29 00:52:24;;;;;;;26.90;15.00;;;;;;;5.88;59.73;100549.52;1816497;79;21801;-76
2020/12/29 00:54:55;;;;;;;27.32;14.13;;;;;;;5.93;59.62;100554.01;1823147;78;21636;-76
2020/12/29 00:57:28;;;;;;;27.15;16.40;;;;;;;5.94;59.50;100539.73;1822761;78;21450;-78
2020/12/29 00:59:56;;;;;;;26.80;13.78;;;;;;;5.94;59.47;100548.20;1816144;79;21674;-76
2020/12/29 01:02:24;;;;;;;28.95;14.63;;;;;;;5.97;59.41;100546.14;1823589;78;21145;-76
2020/12/29 01:05:12;;;;;;;24.55;13.90;;;;;;;5.99;59.41;100538.02;1816522;79;21448;-76
2020/12/29 01:07:39;;;;;;;27.20;15.08;;;;;;;6.01;59.27;100547.58;1793450;78;21185;-77
2020/12/29 01:10:07;;;;;;;27.45;14.38;;;;;;;5.97;59.24;100526.20;1816183;79;21154;-76
2020/12/29 01:12:36;;;;;;;24.23;13.75;;;;;;;5.93;59.24;100523.92;1823399;78;21157;-77
2020/12/29 01:15:04;;;;;;;22.27;13.88;;;;;;;5.85;59.33;100539.97;1816221;79;21153;-79
2020/12/29 01:17:34;;;;;;;22.50;12.37;;;;;;;5.81;59.40;100523.95;1822315;78;22999;-77
2020/12/29 01:20:02;;;;;;;20.62;12.55;;;;;;;5.78;59.44;100532.65;1816224;79;21149;-78
2020/12/29 01:22:30;;;;;;;21.82;13.78;;;;;;;5.78;59.48;100517.54;1823021;78;21141;-77
2020/12/29 01:24:58;;;;;;;21.37;11.60;;;;;;;5.79;59.47;100513.06;1821569;78;21116;-77
2020/12/29 01:27:25;;;;;;;21.57;12.05;;;;;;;5.76;59.56;100528.77;1856254;77;21196;-77
2020/12/29 01:29:54;;;;;;;26.95;15.78;;;;;;;5.72;59.61;100518.05;1855871;77;21394;-77
2020/12/29 01:32:22;;;;;;;24.43;12.45;;;;;;;5.66;59.70;100513.70;1856118;77;21182;-78
2020/12/29 01:34:49;;;;;;;31.07;15.93;;;;;;;5.65;59.86;100525.31;1856097;77;21197;-77
2020/12/29 01:37:19;;;;;;;37.73;15.55;;;;;;;5.64;59.92;100505.03;1855988;77;21165;-78
2020/12/29 01:39:47;;;;;;;30.57;15.60;;;;;;;5.65;59.91;100506.71;1856156;77;21118;-77
2020/12/29 01:42:15;;;;;;;24.12;11.73;;;;;;;5.70;59.89;100514.66;1845884;76;21178;-77
2020/12/29 01:44:42;;;;;;;42.25;18.48;;;;;;;5.69;59.89;100510.33;1834840;76;21178;-78
2020/12/29 01:47:10;;;;;;;41.65;19.60;;;;;;;5.65;59.93;100496.09;1853838;76;21139;-77
2020/12/29 01:49:38;;;;;;;52.45;21.05;;;;;;;5.59;60.07;100502.27;1861231;76;21132;-77
2020/12/29 01:52:06;;;;;;;35.40;18.70;;;;;;;5.53;60.15;100506.72;1865921;76;21150;-79
2020/12/29 01:54:35;;;;;;;31.60;16.90;;;;;;;5.49;60.32;100503.95;1863906;76;21362;-78
2020/12/29 01:57:02;;;;;;;38.80;20.02;;;;;;;5.51;60.33;100495.39;1828019;76;21197;-78
2020/12/29 01:59:30;;;;;;;27.77;14.87;;;;;;;5.49;60.39;100489.34;1856425;76;21146;-78
2020/12/29 02:01:58;;;;;;;30.27;16.25;;;;;;;5.53;60.43;100484.63;1804177;78;21172;-78
2020/12/29 02:04:26;;;;;;;37.20;17.02;;;;;;;5.53;60.42;100482.81;1827549;78;21540;-78
2020/12/29 02:06:55;;;;;;;29.87;15.48;;;;;;;5.55;60.41;100479.56;1820382;78;21789;-78
2020/12/29 02:09:24;;;;;;;36.25;19.57;;;;;;;5.59;60.32;100492.96;1780661;78;21486;-77
2020/12/29 02:11:54;;;;;;;43.40;22.62;;;;;;;5.56;60.33;100495.02;1806270;78;21331;-78
2020/12/29 02:14:22;;;;;;;32.38;16.65;;;;;;;5.50;60.46;100503.50;1825459;78;21042;-77
2020/12/29 02:16:50;;;;;;;32.90;17.92;;;;;;;5.48;60.55;100505.42;1826187;78;21169;-78
2020/12/29 02:19:18;;;;;;;31.97;16.20;;;;;;;5.46;60.59;100500.24;1826479;78;21801;-78
2020/12/29 02:21:46;;;;;;;21.23;11.73;;;;;;;5.48;60.61;100490.32;1806732;78;21213;-78
2020/12/29 02:24:14;;;;;;;34.88;18.00;;;;;;;5.47;60.65;100492.62;1809834;78;21564;-77
2020/12/29 02:26:42;;;;;;;31.60;16.62;;;;;;;5.42;60.70;100483.34;1801602;78;21200;-80
2020/12/29 02:29:10;;;;;;;30.12;17.00;;;;;;;5.38;60.83;100489.38;1808495;78;21182;-80
2020/12/29 02:31:38;;;;;;;34.98;19.20;;;;;;;5.33;60.95;100478.30;1811305;78;21891;-77
2020/12/29 02:34:06;;;;;;;49.48;20.82;;;;;;;5.26;61.11;100465.13;1817861;77;21254;-77
2020/12/29 02:36:34;;;;;;;42.27;21.80;;;;;;;5.27;61.22;100465.52;1822870;78;21349;-78
2020/12/29 02:39:02;;;;;;;32.08;17.55;;;;;;;5.29;61.22;100463.57;1802009;78;21158;-78
2020/12/29 02:41:29;;;;;;;37.20;20.05;;;;;;;5.33;61.24;100474.31;1815908;78;21591;-78
2020/12/29 02:43:57;;;;;;;51.02;24.45;;;;;;;5.37;61.18;100479.73;1829564;78;21358;-78
2020/12/29 02:46:26;;;;;;;33.85;18.48;;;;;;;5.35;61.19;100473.20;1799978;79;21192;-79
2020/12/29 02:48:54;;;;;;;36.98;20.82;;;;;;;5.31;61.27;100474.90;1832685;78;21636;-80
2020/12/29 02:51:22;;;;;;;35.28;19.07;;;;;;;5.31;61.32;100469.12;1832921;78;21449;-80
2020/12/29 02:53:50;;;;;;;37.42;20.08;;;;;;;5.34;61.37;100457.40;1832419;78;21181;-80
2020/12/29 02:56:20;;;;;;;46.65;18.77;;;;;;;5.31;61.44;100439.05;1832397;78;22039;-77
2020/12/29 02:58:48;;;;;;;30.30;15.55;;;;;;;5.36;61.49;100448.84;1830315;78;21643;-79
2020/12/29 03:01:16;;;;;;;33.80;18.07;;;;;;;5.40;61.43;100460.87;1830507;78;21524;-80
2020/12/29 03:03:43;;;;;;;30.62;16.48;;;;;;;5.35;61.48;100455.09;1830307;78;22064;-78
2020/12/29 03:06:12;;;;;;;40.30;19.42;;;;;;;5.32;61.55;100459.34;1830194;78;21045;-79
2020/12/29 03:08:39;;;;;;;42.78;19.00;;;;;;;5.33;61.57;100454.39;1830231;78;21797;-80
2020/12/29 03:11:07;;;;;;;54.45;20.57;;;;;;;5.28;61.70;100455.25;1809034;78;21195;-78
2020/12/29 03:13:35;;;;;;;65.25;21.05;;;;;;;5.28;61.77;100453.92;1817604;77;21152;-78
2020/12/29 03:16:03;;;;;;;60.92;19.25;;;;;;;5.30;61.81;100458.13;1813994;78;21155;-77
2020/12/29 03:18:32;;;;;;;87.27;27.73;;;;;;;5.30;61.83;100467.91;1830450;78;21059;-78
2020/12/29 03:21:00;;;;;;;88.55;24.50;;;;;;;5.31;61.90;100453.66;1832100;78;21371;-79
2020/12/29 03:23:28;;;;;;;99.22;26.60;;;;;;;5.38;61.84;100436.27;1832423;78;21155;-78
2020/12/29 03:25:56;;;;;;;112.40;29.30;;;;;;;5.46;61.75;100434.31;1832304;78;21147;-78
2020/12/29 03:28:24;;;;;;;95.85;24.23;;;;;;;5.51;61.68;100434.78;1832547;78;21155;-78
2020/12/29 03:30:51;;;;;;;78.45;20.88;;;;;;;5.57;61.60;100432.44;1832222;78;21152;-77
2020/12/29 03:33:19;;;;;;;45.85;12.88;;;;;;;5.59;61.49;100423.04;1832649;78;21800;-78
2020/12/29 03:35:47;;;;;;;35.17;15.55;;;;;;;5.57;61.48;100428.46;1832419;78;21188;-77
2020/12/29 03:38:14;;;;;;;24.10;12.13;;;;;;;5.55;61.49;100424.26;1832330;78;21208;-78
2020/12/29 03:40:42;;;;;;;36.77;17.23;;;;;;;5.53;61.53;100437.65;1832600;78;21147;-78
2020/12/29 03:43:13;;;;;;;31.65;14.70;;;;;;;5.53;61.59;100427.02;1832566;78;21163;-79
2020/12/29 03:45:45;;;;;;;29.55;15.65;;;;;;;5.52;61.59;100421.36;1832483;78;22728;-77
2020/12/29 03:48:16;;;;;;;26.37;14.65;;;;;;;5.57;61.61;100431.12;1832039;78;21182;-79
2020/12/29 03:50:44;;;;;;;28.67;15.78;;;;;;;5.64;61.52;100431.47;1831809;77;21151;-78
2020/12/29 03:53:12;;;;;;;32.95;16.77;;;;;;;5.71;61.39;100435.77;1818774;77;21139;-79
2020/12/29 03:55:40;;;;;;;25.15;15.05;;;;;;;5.68;61.37;100434.23;1804052;77;21376;-78
2020/12/29 03:58:07;;;;;;;26.25;13.45;;;;;;;5.68;61.36;100439.55;1812839;78;22226;-78
2020/12/29 04:00:36;;;;;;;24.55;14.13;;;;;;;5.73;61.35;100446.65;1768090;79;21344;-78
2020/12/29 04:03:04;;;;;;;21.27;10.70;;;;;;;5.69;61.35;100429.27;1804335;77;21102;-77
2020/12/29 04:05:33;;;;;;;19.65;10.68;;;;;;;5.68;61.41;100425.39;1816465;78;21171;-77
2020/12/29 04:08:02;;;;;;;20.02;10.35;;;;;;;5.67;61.41;100434.34;1822387;78;21064;-78
2020/12/29 04:10:31;;;;;;;26.35;14.35;;;;;;;5.67;61.44;100418.39;1833013;78;21115;-77
2020/12/29 04:12:59;;;;;;;29.02;14.75;;;;;;;5.65;61.45;100423.84;1833066;78;21112;-77
2020/12/29 04:15:27;;;;;;;23.12;12.90;;;;;;;5.64;61.57;100416.85;1832908;78;21139;-77
2020/12/29 04:17:55;;;;;;;25.45;13.90;;;;;;;5.63;61.63;100423.60;1789768;79;21159;-77
2020/12/29 04:20:23;;;;;;;27.55;15.70;;;;;;;5.60;61.67;100410.11;1799934;79;21196;-78
2020/12/29 04:22:51;;;;;;;29.25;15.00;;;;;;;5.62;61.69;100412.63;1818013;78;21199;-77
2020/12/29 04:25:18;;;;;;;25.08;12.75;;;;;;;5.66;61.68;100422.03;1821896;77;21206;-77
2020/12/29 04:27:46;;;;;;;28.67;15.48;;;;;;;5.69;61.65;100423.11;1810586;77;21190;-78
2020/12/29 04:30:14;;;;;;;26.12;12.13;;;;;;;5.68;61.65;100426.27;1814456;78;21167;-78
2020/12/29 04:32:41;;;;;;;21.87;12.10;;;;;;;5.68;61.61;100428.05;1825627;78;21141;-77
2020/12/29 04:35:09;;;;;;;17.73;10.65;;;;;;;5.61;61.67;100418.42;1831612;78;22626;-78
2020/12/29 04:37:38;;;;;;;19.90;11.10;;;;;;;5.58;61.79;100427.97;1831690;78;21166;-77
2020/12/29 04:40:06;;;;;;;18.95;10.93;;;;;;;5.54;61.88;100425.20;1832785;78;21096;-78
2020/12/29 04:42:35;;;;;;;21.30;12.43;;;;;;;5.48;62.02;100417.75;1831317;78;21036;-77
2020/12/29 04:45:04;;;;;;;24.60;13.10;;;;;;;5.52;62.10;100420.03;1799870;79;21867;-76
2020/12/29 04:47:32;;;;;;;20.85;11.63;;;;;;;5.58;62.03;100397.41;1799855;79;22672;-77
2020/12/29 04:50:00;;;;;;;27.48;14.07;;;;;;;5.64;61.98;100416.02;1813206;77;21591;-79
2020/12/29 04:52:28;;;;;;;23.15;13.05;;;;;;;5.64;61.91;100414.69;1802087;78;21170;-77
2020/12/29 04:54:56;;;;;;;27.73;14.03;;;;;;;5.54;62.01;100398.64;1771922;79;21190;-79
2020/12/29 04:57:24;;;;;;;38.25;16.55;;;;;;;5.54;62.13;100394.20;1799129;78;21175;-78
2020/12/29 04:59:53;;;;;;;31.62;14.95;;;;;;;5.56;62.15;100406.02;1799146;79;21186;-78
2020/12/29 05:02:21;;;;;;;33.40;16.82;;;;;;;5.62;62.09;100402.84;1798769;79;21195;-77
2020/12/29 05:04:48;;;;;;;40.73;20.62;;;;;;;5.65;62.05;100411.89;1798506;79;21162;-77
2020/12/29 05:07:16;;;;;;;33.13;16.10;;;;;;;5.67;62.01;100410.42;1798342;79;21491;-78
2020/12/29 05:09:44;;;;;;;20.50;11.00;;;;;;;5.66;61.99;100418.05;1798227;79;21171;-77
2020/12/29 05:12:16;;;;;;;18.52;11.60;;;;;;;5.65;62.05;100424.34;1743345;79;21164;-78
2020/12/29 05:14:45;;;;;;;23.62;11.40;;;;;;;5.60;62.06;100430.03;1798923;79;21044;-77
2020/12/29 05:17:13;;;;;;;24.15;13.03;;;;;;;5.58;62.08;100422.17;1799940;79;21148;-77
2020/12/29 05:19:41;;;;;;;24.75;13.93;;;;;;;5.55;62.13;100426.43;1768957;79;21112;-78
2020/12/29 05:22:09;;;;;;;33.95;17.60;;;;;;;5.56;62.15;100434.75;1805137;77;21178;-78
2020/12/29 05:24:39;;;;;;;22.52;12.23;;;;;;;5.51;62.27;100447.58;1826537;78;21792;-78
2020/12/29 05:27:06;;;;;;;27.52;17.45;;;;;;;5.45;62.40;100449.41;1771650;78;21594;-77
2020/12/29 05:29:34;;;;;;;37.35;21.23;;;;;;;5.44;62.46;100446.86;1830450;78;21155;-77
2020/12/29 05:32:02;;;;;;;36.53;23.83;;;;;;;5.38;62.66;100427.45;1830185;78;21147;-78
2020/12/29 05:34:29;;;;;;;27.98;16.87;;;;;;;5.39;62.74;100429.97;1830330;78;21662;-78
2020/12/29 05:36:59;;;;;;;26.37;15.05;;;;;;;5.46;62.69;100420.55;1830925;78;21182;-78
2020/12/29 05:39:29;;;;;;;35.55;17.50;;;;;;;5.48;62.64;100399.16;1823466;78;21196;-79
2020/12/29 05:41:57;;;;;;;28.95;14.13;;;;;;;5.47;62.63;100393.00;1810312;78;21216;-77
2020/12/29 05:44:27;;;;;;;21.52;11.22;;;;;;;5.51;62.63;100398.91;1818950;78;21206;-78
2020/12/29 05:46:56;;;;;;;25.90;13.78;;;;;;;5.54;62.56;100396.85;1812273;78;21218;-78
2020/12/29 05:49:24;;;;;;;20.32;12.15;;;;;;;5.57;62.46;100390.42;1817603;78;21757;-78
2020/12/29 05:51:54;;;;;;;16.12;9.55;;;;;;;5.58;62.40;100398.74;1833203;75;21127;-79
2020/12/29 05:54:23;;;;;;;21.15;10.95;;;;;;;5.59;62.39;100401.78;1816502;78;21114;-78
2020/12/29 05:56:52;;;;;;;23.45;12.60;;;;;;;5.58;62.39;100397.41;1833952;77;21633;-77
2020/12/29 05:59:19;;;;;;;20.75;12.23;;;;;;;5.63;62.38;100391.72;1829332;76;21102;-79
2020/12/29 06:01:53;;;;;;;17.12;10.00;;;;;;;5.69;62.26;100407.17;1834855;76;21362;-77
2020/12/29 06:04:21;;;;;;;15.65;9.30;;;;;;;5.69;62.19;100417.80;1821498;78;21720;-78
2020/12/29 06:06:50;;;;;;;18.82;9.63;;;;;;;5.68;62.21;100417.42;1856422;75;21723;-79
2020/12/29 06:09:20;;;;;;;28.62;14.43;;;;;;;5.65;62.21;100424.34;1839798;76;21174;-79
2020/12/29 06:11:54;;;;;;;37.93;18.05;;;;;;;5.64;62.28;100439.93;1836452;76;21182;-78
2020/12/29 06:14:25;;;;;;;32.00;16.42;;;;;;;5.67;62.30;100431.68;1842141;76;21749;-79
2020/12/29 06:16:54;;;;;;;22.40;11.85;;;;;;;5.68;62.27;100435.56;1835898;75;21150;-79
2020/12/29 06:19:28;;;;;;;30.43;15.03;;;;;;;5.73;62.23;100449.80;1842518;76;21494;-77
2020/12/29 06:22:10;;;;;;;27.37;14.35;;;;;;;5.72;62.21;100415.73;1836245;76;21406;-80
2020/12/29 06:24:41;;;;;;;28.15;15.90;;;;;;;5.74;62.18;100404.48;1797108;79;21202;-79
2020/12/29 06:27:11;;;;;;;21.35;10.88;;;;;;;5.82;62.09;100387.90;1813964;77;21602;-79
2020/12/29 06:29:43;;;;;;;18.85;11.43;;;;;;;5.88;61.95;100403.32;1817348;77;21651;-78
2020/12/29 06:32:16;;;;;;;21.20;11.57;;;;;;;5.83;61.89;100404.20;1819391;77;21127;-78
2020/12/29 06:34:44;;;;;;;23.57;13.25;;;;;;;5.80;61.93;100402.63;1812688;78;21816;-80
2020/12/29 06:37:25;;;;;;;29.55;16.00;;;;;;;5.79;61.95;100390.31;1823940;77;21121;-78
2020/12/29 06:40:01;;;;;;;16.77;10.80;;;;;;;5.84;61.98;100392.58;1820860;77;21180;-78
2020/12/29 06:42:29;;;;;;;23.73;12.55;;;;;;;5.95;61.88;100389.91;1815199;78;22344;-77
2020/12/29 06:44:57;;;;;;;28.47;15.70;;;;;;;6.01;61.67;100398.69;1779157;77;21494;-79
2020/12/29 06:47:27;;;;;;;21.68;10.82;;;;;;;6.04;61.62;100388.25;1807342;77;21746;-77
2020/12/29 06:49:54;;;;;;;20.20;11.43;;;;;;;6.10;61.50;100383.27;1802374;77;21436;-77
2020/12/29 06:52:28;;;;;;;20.40;11.88;;;;;;;6.05;61.40;100382.83;1790178;78;22304;-77
2020/12/29 06:55:00;;;;;;;22.32;13.32;;;;;;;6.06;61.42;100391.16;1808575;77;21757;-79
2020/12/29 06:57:40;;;;;;;21.37;11.97;;;;;;;6.12;61.37;100384.46;1809390;77;21204;-80
2020/12/29 07:00:16;;;;;;;31.82;14.53;;;;;;;6.13;61.30;100382.64;1805201;78;21243;-78
2020/12/29 07:02:54;;;;;;;23.18;12.98;;;;;;;6.13;61.32;100386.63;1809267;77;21180;-78
2020/12/29 07:05:26;;;;;;;16.65;9.90;;;;;;;6.12;61.29;100393.77;1799359;77;21451;-77
2020/12/29 07:08:00;;;;;;;26.45;12.18;;;;;;;6.05;61.35;100381.98;1807135;77;21123;-77
2020/12/29 07:10:46;;;;;;;29.77;14.80;;;;;;;5.96;61.47;100383.61;1809251;77;21667;-78
2020/12/29 07:13:18;;;;;;;33.92;17.20;;;;;;;5.89;61.69;100398.35;1810158;77;21104;-78
2020/12/29 07:15:51;;;;;;;37.78;17.23;;;;;;;5.89;61.82;100410.31;1823413;78;21131;-78
2020/12/29 07:18:28;;;;;;;38.13;19.35;;;;;;;5.87;61.94;100416.27;1828477;77;21365;-78
2020/12/29 07:20:57;;;;;;;29.48;15.38;;;;;;;5.86;62.00;100406.61;1812832;77;21141;-79
2020/12/29 07:23:28;;;;;;;33.75;17.70;;;;;;;5.87;62.05;100403.45;1820842;77;21099;-78
2020/12/29 07:25:59;;;;;;;29.40;15.83;;;;;;;5.87;62.07;100406.12;1792402;78;21100;-77
2020/12/29 07:28:29;;;;;;;27.02;13.60;;;;;;;5.85;62.10;100395.59;1814031;78;21089;-77
2020/12/29 07:30:57;;;;;;;32.42;17.42;;;;;;;5.85;62.16;100398.25;1810884;77;21416;-78
2020/12/29 07:33:25;;;;;;;31.87;16.02;;;;;;;5.75;62.35;100387.55;1828661;77;21101;-77
2020/12/29 07:35:54;;;;;;;34.73;18.75;;;;;;;5.76;62.55;100383.08;1835263;76;21097;-77
2020/12/29 07:38:25;;;;;;;36.90;19.92;;;;;;;5.77;62.57;100375.48;1840674;76;21099;-77
2020/12/29 07:40:53;;;;;;;35.05;20.45;;;;;;;5.77;62.64;100385.63;1815670;77;21730;-77
2020/12/29 07:43:21;;;;;;;37.13;19.35;;;;;;;5.80;62.62;100391.16;1814752;77;22225;-77
2020/12/29 07:45:48;;;;;;;28.20;16.02;;;;;;;5.81;62.59;100390.17;1808103;77;21119;-77
2020/12/29 07:48:16;;;;;;;32.83;16.70;;;;;;;5.81;62.69;100379.55;1786613;77;21126;-76
2020/12/29 07:50:44;;;;;;;31.15;18.25;;;;;;;5.83;62.65;100384.26;1813592;77;21137;-79
2020/12/29 07:53:13;;;;;;;32.20;18.07;;;;;;;5.87;62.62;100379.05;1809934;77;21096;-78
2020/12/29 07:55:46;;;;;;;20.20;11.22;;;;;;;5.90;62.56;100376.11;1813794;77;21319;-78
2020/12/29 07:58:14;;;;;;;28.20;16.95;;;;;;;5.90;62.53;100384.57;1814509;77;21129;-78
2020/12/29 08:00:42;;;;;;;24.12;13.72;;;;;;;5.92;62.55;100376.87;1801386;77;21090;-79
2020/12/29 08:03:12;;;;;;;25.72;13.72;;;;;;;5.96;62.48;100380.95;1811302;77;21095;-79
2020/12/29 08:05:40;;;;;;;26.80;14.30;;;;;;;5.94;62.44;100374.91;1821019;77;21131;-78
2020/12/29 08:08:09;;;;;;;26.45;14.28;;;;;;;5.94;62.52;100374.06;1803806;77;21346;-80
2020/12/29 08:10:41;;;;;;;27.75;16.07;;;;;;;5.95;62.47;100366.44;1810673;77;21669;-79
2020/12/29 08:13:13;;;;;;;28.85;16.77;;;;;;;5.99;62.47;100366.05;1825133;76;21136;-80
2020/12/29 08:15:42;;;;;;;24.75;12.90;;;;;;;6.03;62.39;100370.62;1830982;77;21738;-80
2020/12/29 08:18:12;;;;;;;25.25;13.88;;;;;;;6.09;62.26;100366.97;1808247;77;21173;-80
2020/12/29 08:20:47;;;;;;;29.85;16.10;;;;;;;6.10;62.22;100365.98;1817726;77;22219;-80
2020/12/29 08:23:20;;;;;;;41.15;21.27;;;;;;;6.12;62.19;100371.66;1819262;77;21102;-80
2020/12/29 08:25:56;;;;;;;37.90;20.12;;;;;;;6.10;62.21;100383.77;1818328;76;21138;-78
2020/12/29 08:28:28;;;;;;;39.83;20.95;;;;;;;6.07;62.21;100377.37;1808887;77;21171;-78
2020/12/29 08:31:01;;;;;;;31.27;16.97;;;;;;;6.00;62.38;100374.41;1819312;76;21482;-76
2020/12/29 08:33:30;;;;;;;32.83;18.05;;;;;;;6.05;62.36;100362.89;1818012;76;21369;-76
2020/12/29 08:36:04;;;;;;;34.05;20.60;;;;;;;6.08;62.41;100367.92;1819834;76;21109;-77
2020/12/29 08:38:44;;;;;;;40.15;19.57;;;;;;;6.07;62.43;100366.24;1818049;77;21108;-76
2020/12/29 08:41:26;;;;;;;37.15;18.48;;;;;;;6.05;62.43;100358.06;1818450;77;20935;-79
2020/12/29 08:43:54;;;;;;;29.37;16.07;;;;;;;6.06;62.47;100349.09;1824312;77;21397;-78
2020/12/29 08:46:23;;;;;;;37.70;19.52;;;;;;;6.04;62.58;100347.91;1812739;77;21345;-76
2020/12/29 08:49:00;;;;;;;29.52;15.20;;;;;;;6.09;62.53;100327.08;1814785;77;21116;-78
2020/12/29 08:51:30;;;;;;;26.27;14.10;;;;;;;6.04;62.67;100334.62;1823596;77;21116;-79
2020/12/29 08:54:10;;;;;;;27.42;15.83;;;;;;;6.03;62.73;100324.94;1811800;78;21116;-77
2020/12/29 08:56:38;;;;;;;36.48;19.25;;;;;;;6.03;62.72;100331.58;1843424;77;21081;-77
2020/12/29 08:59:21;;;;;;;35.68;19.52;;;;;;;6.00;62.82;100330.54;1847426;76;21186;-78
2020/12/29 09:01:56;;;;;;;37.25;19.77;;;;;;;6.05;62.86;100322.16;1812008;77;21144;-78
2020/12/29 09:04:30;;;;;;;29.72;17.05;;;;;;;6.08;62.81;100316.07;1813081;76;21138;-80
2020/12/29 09:07:16;;;;;;;31.93;18.10;;;;;;;6.12;62.81;100302.52;1783796;77;21835;-80
2020/12/29 09:10:04;;;;;;;35.63;18.90;;;;;;;6.14;62.85;100299.25;1807413;77;21127;-78
2020/12/29 09:12:32;;;;;;;27.15;14.20;;;;;;;6.18;62.82;100291.37;1811722;77;21343;-78
2020/12/29 09:15:06;;;;;;;29.18;15.83;;;;;;;6.21;62.81;100294.58;1813921;77;21132;-76
2020/12/29 09:17:36;;;;;;;27.98;15.95;;;;;;;6.23;62.82;100299.29;1818861;77;21451;-78
2020/12/29 09:20:22;;;;;;;34.43;18.67;;;;;;;6.24;62.79;100292.98;1815161;77;21561;-79
2020/12/29 09:23:11;;;;;;;24.10;13.25;;;;;;;6.30;62.70;100291.11;1819710;76;21524;-76
2020/12/29 09:25:42;;;;;;;25.80;13.80;;;;;;;6.36;62.57;100292.41;1820091;76;22232;-76
2020/12/29 09:28:24;;;;;;;30.55;16.17;;;;;;;6.43;62.41;100290.88;1817108;76;21113;-77
2020/12/29 09:31:07;;;;;;;29.60;16.80;;;;;;;6.37;62.45;100298.08;1814985;76;21027;-76
2020/12/29 09:33:38;;;;;;;25.68;14.07;;;;;;;6.40;62.48;100281.83;1817251;77;21485;-77
2020/12/29 09:36:09;;;;;;;33.30;16.67;;;;;;;6.41;62.60;100276.88;1813624;77;21127;-77
2020/12/29 09:38:37;;;;;;;21.37;13.43;;;;;;;6.40;62.51;100271.18;1806218;77;21374;-78
2020/12/29 09:41:05;;;;;;;18.75;10.98;;;;;;;6.42;62.52;100268.41;1818981;76;21116;-77
2020/12/29 09:43:36;;;;;;;22.52;12.78;;;;;;;6.38;62.62;100290.44;1815822;77;21128;-75
2020/12/29 09:46:13;;;;;;;24.07;12.30;;;;;;;6.35;62.72;100294.20;1813935;77;21803;-76
2020/12/29 09:48:43;;;;;;;29.25;15.23;;;;;;;6.33;62.81;100291.34;1784144;78;21105;-76
2020/12/29 09:51:14;;;;;;;21.40;12.82;;;;;;;6.40;62.70;100272.52;1822754;76;21186;-76
2020/12/29 09:53:41;;;;;;;26.07;12.45;;;;;;;6.27;63.03;100275.93;1815252;77;21118;-77
2020/12/29 09:56:09;;;;;;;25.62;13.75;;;;;;;6.29;63.06;100260.17;1820397;76;21548;-76
2020/12/29 09:58:39;;;;;;;29.40;13.22;;;;;;;6.24;63.14;100251.77;1817080;77;21112;-77
2020/12/29 10:01:07;;;;;;;27.20;14.05;;;;;;;6.19;63.38;100235.86;1816941;77;21089;-76
2020/12/29 10:03:35;;;;;;;33.73;19.12;;;;;;;6.17;63.57;100209.87;1812764;76;21661;-77
2020/12/29 10:06:03;;;;;;;26.10;14.38;;;;;;;6.21;63.65;100199.33;1818686;76;21108;-76
2020/12/29 10:08:31;;;;;;;25.15;13.85;;;;;;;6.28;63.59;100196.48;1824125;76;21097;-77
2020/12/29 10:10:59;;;;;;;28.15;16.25;;;;;;;6.29;63.62;100195.50;1812626;78;21129;-77
2020/12/29 10:13:27;;;;;;;33.90;18.45;;;;;;;6.29;63.67;100204.31;1842413;75;21078;-76
2020/12/29 10:15:55;;;;;;;31.02;16.02;;;;;;;6.33;63.64;100191.59;1844098;75;21381;-76
2020/12/29 10:18:24;;;;;;;34.20;16.77;;;;;;;6.37;63.53;100198.32;1836949;75;20973;-76
2020/12/29 10:20:55;;;;;;;31.48;17.45;;;;;;;6.38;63.57;100188.52;1843030;75;21129;-78
2020/12/29 10:23:22;;;;;;;24.52;13.58;;;;;;;6.42;63.50;100184.61;1843685;75;21113;-77
2020/12/29 10:25:50;;;;;;;32.48;16.52;;;;;;;6.42;63.46;100186.77;1842055;76;21112;-78
2020/12/29 10:28:19;;;;;;;28.35;15.23;;;;;;;6.42;63.41;100193.42;1845290;75;22095;-78
2020/12/29 10:30:48;;;;;;;31.60;16.97;;;;;;;6.41;63.42;100190.42;1837477;75;21133;-78
2020/12/29 10:33:16;;;;;;;22.10;12.78;;;;;;;6.47;63.41;100190.34;1838870;75;21635;-78
2020/12/29 10:35:46;;;;;;;27.65;14.13;;;;;;;6.45;63.39;100177.20;1841532;75;21639;-77
2020/12/29 10:38:14;;;;;;;28.42;16.25;;;;;;;6.40;63.50;100167.43;1836393;75;21087;-77
2020/12/29 10:40:42;;;;;;;26.82;14.80;;;;;;;6.38;63.57;100172.06;1839672;75;21376;-77
2020/12/29 10:43:19;;;;;;;32.78;18.37;;;;;;;6.39;63.73;100171.56;1842163;75;21129;-76
2020/12/29 10:45:45;;;;;;;30.52;17.70;;;;;;;6.42;63.86;100175.29;1838624;75;21103;-77
2020/12/29 10:48:13;;;;;;;27.65;14.87;;;;;;;6.43;63.91;100179.13;1846920;75;21371;-75
2020/12/29 10:50:41;;;;;;;33.02;16.77;;;;;;;6.42;64.08;100177.46;1811066;76;21099;-75
2020/12/29 10:53:10;;;;;;;33.53;18.15;;;;;;;6.43;64.23;100172.98;1812768;77;21334;-77
2020/12/29 10:55:38;;;;;;;34.85;18.55;;;;;;;6.44;64.34;100159.52;1817014;77;21128;-78
2020/12/29 10:58:06;;;;;;;31.70;17.07;;;;;;;6.50;64.32;100157.66;1805099;78;21636;-77
2020/12/29 11:00:34;;;;;;;27.30;16.23;;;;;;;6.57;64.21;100150.78;1819140;76;21103;-76
2020/12/29 11:03:02;;;;;;;32.00;18.25;;;;;;;6.65;64.18;100151.42;1804854;78;21406;-75
2020/12/29 11:05:30;;;;;;;30.48;15.18;;;;;;;6.70;64.08;100157.16;1819777;77;21608;-77
2020/12/29 11:07:58;;;;;;;32.30;14.65;;;;;;;6.73;64.04;100158.71;1815263;77;21683;-76
2020/12/29 11:10:27;;;;;;;18.35;10.45;;;;;;;6.74;63.95;100157.72;1816144;77;21136;-77
2020/12/29 11:12:55;;;;;;;35.52;17.55;;;;;;;6.82;63.94;100159.20;1821123;77;21108;-77
2020/12/29 11:15:23;;;;;;;28.02;14.50;;;;;;;6.90;63.78;100161.97;1820926;76;21085;-75
2020/12/29 11:17:51;;;;;;;29.10;14.85;;;;;;;7.00;63.64;100168.64;1822388;76;21356;-76
2020/12/29 11:20:22;;;;;;;28.70;16.32;;;;;;;7.06;63.54;100178.22;1790755;77;21121;-76
2020/12/29 11:22:50;;;;;;;24.12;14.68;;;;;;;7.08;63.43;100189.55;1815715;77;21168;-77
2020/12/29 11:25:18;;;;;;;27.58;15.35;;;;;;;7.10;63.46;100195.59;1811202;77;21124;-77
2020/12/29 11:27:48;;;;;;;37.50;20.62;;;;;;;7.15;63.45;100190.33;1819052;77;21104;-79